sensor_id;sensor_type;location;lat;lon;timestamp;P1;durP1;ratioP1;P2;durP2;ratioP2
25045;SDS011;13044;49.304;12.840;2023-02-26T00:01:35;8.60;;;4.38;;
25045;SDS011;13044;49.304;12.840;2023-02-26T00:04:03;18.15;;;6.82;;
25045;SDS011;13044;49.304;12.840;2023-02-26T00:06:32;28.63;;;10.00;;
25045;SDS011;13044;49.304;12.840;2023-02-26T00:09:03;14.82;;;6.43;;
25045;SDS011;13044;49.304;12.840;2023-02-26T00:11:32;5.50;;;2.97;;
25045;SDS011;13044;49.304;12.840;2023-02-26T00:13:59;2.03;;;1.50;;
25045;SDS011;13044;49.304;12.840;2023-02-26T00:16:27;2.15;;;1.67;;
25045;SDS011;13044;49.304;12.840;2023-02-26T00:18:59;4.72;;;2.00;;
25045;SDS011;13044;49.304;12.840;2023-02-26T00:21:30;4.32;;;1.80;;
25045;SDS011;13044;49.304;12.840;2023-02-26T00:23:58;2.88;;;1.50;;
25045;SDS011;13044;49.304;12.840;2023-02-26T00:26:27;3.35;;;1.48;;
25045;SDS011;13044;49.304;12.840;2023-02-26T00:28:56;3.63;;;1.33;;
25045;SDS011;13044;49.304;12.840;2023-02-26T00:31:24;1.95;;;1.38;;
25045;SDS011;13044;49.304;12.840;2023-02-26T00:33:52;2.20;;;1.35;;
25045;SDS011;13044;49.304;12.840;2023-02-26T00:36:36;1.70;;;1.30;;
25045;SDS011;13044;49.304;12.840;2023-02-26T00:42:12;2.25;;;1.48;;
25045;SDS011;13044;49.304;12.840;2023-02-26T00:44:39;2.55;;;1.73;;
25045;SDS011;13044;49.304;12.840;2023-02-26T00:53:11;3.88;;;1.70;;
25045;SDS011;13044;49.304;12.840;2023-02-26T00:55:47;2.10;;;1.38;;
25045;SDS011;13044;49.304;12.840;2023-02-26T00:58:14;2.05;;;1.45;;
25045;SDS011;13044;49.304;12.840;2023-02-26T01:00:41;2.50;;;1.42;;
25045;SDS011;13044;49.304;12.840;2023-02-26T01:03:08;2.42;;;1.67;;
25045;SDS011;13044;49.304;12.840;2023-02-26T01:05:37;1.85;;;1.33;;
25045;SDS011;13044;49.304;12.840;2023-02-26T01:08:07;2.05;;;1.48;;
25045;SDS011;13044;49.304;12.840;2023-02-26T01:10:48;1.63;;;1.27;;
25045;SDS011;13044;49.304;12.840;2023-02-26T01:13:16;1.88;;;1.50;;
25045;SDS011;13044;49.304;12.840;2023-02-26T01:15:46;4.20;;;1.83;;
25045;SDS011;13044;49.304;12.840;2023-02-26T01:18:21;5.35;;;1.38;;
25045;SDS011;13044;49.304;12.840;2023-02-26T01:21:04;2.33;;;1.40;;
25045;SDS011;13044;49.304;12.840;2023-02-26T01:23:44;3.67;;;1.60;;
25045;SDS011;13044;49.304;12.840;2023-02-26T01:26:23;3.58;;;1.80;;
25045;SDS011;13044;49.304;12.840;2023-02-26T01:28:54;2.45;;;1.77;;
25045;SDS011;13044;49.304;12.840;2023-02-26T01:31:41;3.95;;;2.10;;
25045;SDS011;13044;49.304;12.840;2023-02-26T01:43:28;5.80;;;2.05;;
25045;SDS011;13044;49.304;12.840;2023-02-26T01:49:21;3.58;;;2.10;;
25045;SDS011;13044;49.304;12.840;2023-02-26T01:51:57;2.70;;;1.73;;
25045;SDS011;13044;49.304;12.840;2023-02-26T01:54:33;2.15;;;1.38;;
25045;SDS011;13044;49.304;12.840;2023-02-26T01:57:05;2.08;;;1.88;;
25045;SDS011;13044;49.304;12.840;2023-02-26T01:59:40;2.45;;;1.95;;
25045;SDS011;13044;49.304;12.840;2023-02-26T02:02:11;2.75;;;1.90;;
25045;SDS011;13044;49.304;12.840;2023-02-26T02:04:42;2.30;;;1.77;;
25045;SDS011;13044;49.304;12.840;2023-02-26T02:07:10;3.30;;;1.98;;
25045;SDS011;13044;49.304;12.840;2023-02-26T02:09:37;2.30;;;1.90;;
25045;SDS011;13044;49.304;12.840;2023-02-26T02:23:46;2.22;;;2.00;;
25045;SDS011;13044;49.304;12.840;2023-02-26T02:32:07;3.53;;;2.17;;
25045;SDS011;13044;49.304;12.840;2023-02-26T02:38:03;3.00;;;2.00;;
25045;SDS011;13044;49.304;12.840;2023-02-26T02:40:38;2.28;;;2.00;;
25045;SDS011;13044;49.304;12.840;2023-02-26T02:43:12;4.10;;;2.20;;
25045;SDS011;13044;49.304;12.840;2023-02-26T02:48:25;2.40;;;1.90;;
25045;SDS011;13044;49.304;12.840;2023-02-26T02:51:28;4.18;;;2.05;;
25045;SDS011;13044;49.304;12.840;2023-02-26T02:56:49;2.72;;;2.03;;
25045;SDS011;13044;49.304;12.840;2023-02-26T02:59:23;2.70;;;1.80;;
25045;SDS011;13044;49.304;12.840;2023-02-26T03:02:00;4.20;;;2.08;;
25045;SDS011;13044;49.304;12.840;2023-02-26T03:04:45;3.25;;;2.10;;
25045;SDS011;13044;49.304;12.840;2023-02-26T03:07:13;4.38;;;2.45;;
25045;SDS011;13044;49.304;12.840;2023-02-26T03:09:40;3.33;;;1.95;;
25045;SDS011;13044;49.304;12.840;2023-02-26T03:12:08;2.67;;;1.98;;
25045;SDS011;13044;49.304;12.840;2023-02-26T03:14:35;7.10;;;2.15;;
25045;SDS011;13044;49.304;12.840;2023-02-26T03:20:35;2.60;;;1.85;;
25045;SDS011;13044;49.304;12.840;2023-02-26T03:23:23;4.15;;;2.15;;
25045;SDS011;13044;49.304;12.840;2023-02-26T03:26:02;3.38;;;2.10;;
25045;SDS011;13044;49.304;12.840;2023-02-26T03:28:44;3.67;;;2.05;;
25045;SDS011;13044;49.304;12.840;2023-02-26T03:34:25;4.30;;;2.40;;
25045;SDS011;13044;49.304;12.840;2023-02-26T03:37:07;7.43;;;2.80;;
25045;SDS011;13044;49.304;12.840;2023-02-26T03:39:51;4.15;;;2.60;;
25045;SDS011;13044;49.304;12.840;2023-02-26T03:42:40;5.40;;;2.95;;
25045;SDS011;13044;49.304;12.840;2023-02-26T03:45:15;4.72;;;2.33;;
25045;SDS011;13044;49.304;12.840;2023-02-26T03:47:49;5.65;;;2.80;;
25045;SDS011;13044;49.304;12.840;2023-02-26T03:50:20;2.63;;;2.20;;
25045;SDS011;13044;49.304;12.840;2023-02-26T03:52:52;2.92;;;2.30;;
25045;SDS011;13044;49.304;12.840;2023-02-26T03:55:21;3.85;;;2.42;;
25045;SDS011;13044;49.304;12.840;2023-02-26T03:57:56;4.80;;;2.50;;
25045;SDS011;13044;49.304;12.840;2023-02-26T04:00:23;3.78;;;2.58;;
25045;SDS011;13044;49.304;12.840;2023-02-26T04:03:00;3.85;;;2.53;;
25045;SDS011;13044;49.304;12.840;2023-02-26T04:05:42;4.57;;;2.65;;
25045;SDS011;13044;49.304;12.840;2023-02-26T04:08:14;2.92;;;2.10;;
25045;SDS011;13044;49.304;12.840;2023-02-26T04:10:43;6.65;;;2.50;;
25045;SDS011;13044;49.304;12.840;2023-02-26T04:13:18;4.43;;;2.35;;
25045;SDS011;13044;49.304;12.840;2023-02-26T04:15:45;2.72;;;2.00;;
25045;SDS011;13044;49.304;12.840;2023-02-26T04:18:12;2.92;;;2.00;;
25045;SDS011;13044;49.304;12.840;2023-02-26T04:20:38;4.97;;;2.20;;
25045;SDS011;13044;49.304;12.840;2023-02-26T04:23:05;2.58;;;2.00;;
25045;SDS011;13044;49.304;12.840;2023-02-26T04:25:32;3.70;;;1.95;;
25045;SDS011;13044;49.304;12.840;2023-02-26T04:27:59;2.53;;;1.80;;
25045;SDS011;13044;49.304;12.840;2023-02-26T04:30:26;3.90;;;1.70;;
25045;SDS011;13044;49.304;12.840;2023-02-26T04:32:53;3.85;;;1.73;;
25045;SDS011;13044;49.304;12.840;2023-02-26T04:35:21;5.43;;;1.92;;
25045;SDS011;13044;49.304;12.840;2023-02-26T04:37:48;2.75;;;1.60;;
25045;SDS011;13044;49.304;12.840;2023-02-26T04:40:15;2.00;;;1.65;;
25045;SDS011;13044;49.304;12.840;2023-02-26T04:42:42;3.67;;;1.85;;
25045;SDS011;13044;49.304;12.840;2023-02-26T04:45:12;6.05;;;2.40;;
25045;SDS011;13044;49.304;12.840;2023-02-26T04:47:39;5.28;;;1.88;;
25045;SDS011;13044;49.304;12.840;2023-02-26T04:50:06;4.07;;;1.80;;
25045;SDS011;13044;49.304;12.840;2023-02-26T04:52:34;6.03;;;2.17;;
25045;SDS011;13044;49.304;12.840;2023-02-26T04:55:01;1.75;;;1.50;;
25045;SDS011;13044;49.304;12.840;2023-02-26T04:57:28;2.25;;;1.50;;
25045;SDS011;13044;49.304;12.840;2023-02-26T04:59:59;4.00;;;1.63;;
25045;SDS011;13044;49.304;12.840;2023-02-26T05:02:29;3.65;;;1.60;;
25045;SDS011;13044;49.304;12.840;2023-02-26T05:04:56;3.05;;;2.00;;
25045;SDS011;13044;49.304;12.840;2023-02-26T05:07:23;2.72;;;1.33;;
25045;SDS011;13044;49.304;12.840;2023-02-26T05:09:49;4.93;;;1.60;;
25045;SDS011;13044;49.304;12.840;2023-02-26T05:12:16;1.70;;;1.35;;
25045;SDS011;13044;49.304;12.840;2023-02-26T05:14:43;4.18;;;1.60;;
25045;SDS011;13044;49.304;12.840;2023-02-26T05:17:10;2.25;;;1.85;;
25045;SDS011;13044;49.304;12.840;2023-02-26T05:19:37;2.20;;;1.60;;
25045;SDS011;13044;49.304;12.840;2023-02-26T05:22:04;3.28;;;1.90;;
25045;SDS011;13044;49.304;12.840;2023-02-26T05:24:31;4.25;;;1.80;;
25045;SDS011;13044;49.304;12.840;2023-02-26T05:26:58;3.33;;;1.73;;
25045;SDS011;13044;49.304;12.840;2023-02-26T05:29:25;2.10;;;1.63;;
25045;SDS011;13044;49.304;12.840;2023-02-26T05:31:52;2.38;;;1.70;;
25045;SDS011;13044;49.304;12.840;2023-02-26T05:34:19;2.55;;;1.58;;
25045;SDS011;13044;49.304;12.840;2023-02-26T05:36:45;2.15;;;1.67;;
25045;SDS011;13044;49.304;12.840;2023-02-26T05:39:19;3.20;;;1.90;;
25045;SDS011;13044;49.304;12.840;2023-02-26T05:41:46;5.55;;;1.70;;
25045;SDS011;13044;49.304;12.840;2023-02-26T05:44:14;3.08;;;1.85;;
25045;SDS011;13044;49.304;12.840;2023-02-26T05:46:41;2.45;;;1.70;;
25045;SDS011;13044;49.304;12.840;2023-02-26T05:49:08;2.83;;;1.95;;
25045;SDS011;13044;49.304;12.840;2023-02-26T05:51:35;5.38;;;2.50;;
25045;SDS011;13044;49.304;12.840;2023-02-26T05:54:02;3.75;;;2.30;;
25045;SDS011;13044;49.304;12.840;2023-02-26T05:56:31;3.78;;;1.92;;
25045;SDS011;13044;49.304;12.840;2023-02-26T05:58:58;3.05;;;1.80;;
25045;SDS011;13044;49.304;12.840;2023-02-26T06:01:25;6.45;;;2.17;;
25045;SDS011;13044;49.304;12.840;2023-02-26T06:03:51;8.00;;;2.20;;
25045;SDS011;13044;49.304;12.840;2023-02-26T06:06:20;5.35;;;2.10;;
25045;SDS011;13044;49.304;12.840;2023-02-26T06:08:47;3.72;;;2.30;;
25045;SDS011;13044;49.304;12.840;2023-02-26T06:11:14;3.78;;;2.10;;
25045;SDS011;13044;49.304;12.840;2023-02-26T06:13:41;8.43;;;2.50;;
25045;SDS011;13044;49.304;12.840;2023-02-26T06:16:08;4.70;;;2.63;;
25045;SDS011;13044;49.304;12.840;2023-02-26T06:18:35;2.60;;;2.10;;
25045;SDS011;13044;49.304;12.840;2023-02-26T06:21:02;4.95;;;2.28;;
25045;SDS011;13044;49.304;12.840;2023-02-26T06:23:29;5.22;;;2.10;;
25045;SDS011;13044;49.304;12.840;2023-02-26T06:25:56;3.60;;;2.10;;
25045;SDS011;13044;49.304;12.840;2023-02-26T06:28:25;3.95;;;2.33;;
25045;SDS011;13044;49.304;12.840;2023-02-26T06:30:52;4.03;;;2.42;;
25045;SDS011;13044;49.304;12.840;2023-02-26T06:33:20;2.80;;;2.35;;
25045;SDS011;13044;49.304;12.840;2023-02-26T06:35:47;3.78;;;2.47;;
25045;SDS011;13044;49.304;12.840;2023-02-26T06:38:15;2.95;;;2.20;;
25045;SDS011;13044;49.304;12.840;2023-02-26T06:40:43;4.05;;;2.28;;
25045;SDS011;13044;49.304;12.840;2023-02-26T06:43:12;5.55;;;2.63;;
25045;SDS011;13044;49.304;12.840;2023-02-26T06:45:39;3.65;;;2.40;;
25045;SDS011;13044;49.304;12.840;2023-02-26T06:48:07;12.07;;;2.80;;
25045;SDS011;13044;49.304;12.840;2023-02-26T06:50:34;2.50;;;2.30;;
25045;SDS011;13044;49.304;12.840;2023-02-26T06:53:02;4.10;;;2.30;;
25045;SDS011;13044;49.304;12.840;2023-02-26T06:55:30;10.27;;;4.60;;
25045;SDS011;13044;49.304;12.840;2023-02-26T06:57:57;2.67;;;2.30;;
25045;SDS011;13044;49.304;12.840;2023-02-26T07:00:24;3.95;;;2.40;;
25045;SDS011;13044;49.304;12.840;2023-02-26T07:02:51;3.45;;;2.30;;
25045;SDS011;13044;49.304;12.840;2023-02-26T07:05:18;2.40;;;2.20;;
25045;SDS011;13044;49.304;12.840;2023-02-26T07:07:47;3.60;;;2.30;;
25045;SDS011;13044;49.304;12.840;2023-02-26T07:10:14;3.83;;;2.47;;
25045;SDS011;13044;49.304;12.840;2023-02-26T07:12:40;4.15;;;2.95;;
25045;SDS011;13044;49.304;12.840;2023-02-26T07:15:07;5.03;;;3.00;;
25045;SDS011;13044;49.304;12.840;2023-02-26T07:17:34;4.35;;;2.58;;
25045;SDS011;13044;49.304;12.840;2023-02-26T07:20:01;4.70;;;3.25;;
25045;SDS011;13044;49.304;12.840;2023-02-26T07:22:35;4.15;;;2.78;;
25045;SDS011;13044;49.304;12.840;2023-02-26T07:25:04;3.67;;;2.58;;
25045;SDS011;13044;49.304;12.840;2023-02-26T07:27:32;3.72;;;2.80;;
25045;SDS011;13044;49.304;12.840;2023-02-26T07:29:59;3.58;;;2.67;;
25045;SDS011;13044;49.304;12.840;2023-02-26T07:32:27;2.83;;;2.50;;
25045;SDS011;13044;49.304;12.840;2023-02-26T07:34:55;4.70;;;2.60;;
25045;SDS011;13044;49.304;12.840;2023-02-26T07:37:23;3.28;;;2.50;;
25045;SDS011;13044;49.304;12.840;2023-02-26T07:39:50;6.15;;;2.67;;
25045;SDS011;13044;49.304;12.840;2023-02-26T07:42:17;4.65;;;2.58;;
25045;SDS011;13044;49.304;12.840;2023-02-26T07:44:45;5.40;;;2.53;;
25045;SDS011;13044;49.304;12.840;2023-02-26T07:47:12;3.33;;;2.53;;
25045;SDS011;13044;49.304;12.840;2023-02-26T07:49:39;4.78;;;3.30;;
25045;SDS011;13044;49.304;12.840;2023-02-26T07:52:06;5.00;;;3.55;;
25045;SDS011;13044;49.304;12.840;2023-02-26T07:54:33;4.40;;;3.45;;
25045;SDS011;13044;49.304;12.840;2023-02-26T07:57:01;4.45;;;2.72;;
25045;SDS011;13044;49.304;12.840;2023-02-26T07:59:29;5.60;;;3.35;;
25045;SDS011;13044;49.304;12.840;2023-02-26T08:01:56;4.45;;;2.55;;
25045;SDS011;13044;49.304;12.840;2023-02-26T08:04:23;5.93;;;3.80;;
25045;SDS011;13044;49.304;12.840;2023-02-26T08:06:50;17.25;;;9.57;;
25045;SDS011;13044;49.304;12.840;2023-02-26T08:09:20;12.95;;;7.25;;
25045;SDS011;13044;49.304;12.840;2023-02-26T08:11:47;10.27;;;6.00;;
25045;SDS011;13044;49.304;12.840;2023-02-26T08:14:14;5.88;;;4.07;;
25045;SDS011;13044;49.304;12.840;2023-02-26T08:16:40;4.95;;;3.90;;
25045;SDS011;13044;49.304;12.840;2023-02-26T08:19:07;4.78;;;3.92;;
25045;SDS011;13044;49.304;12.840;2023-02-26T08:21:34;4.93;;;3.53;;
25045;SDS011;13044;49.304;12.840;2023-02-26T08:24:02;5.60;;;4.57;;
25045;SDS011;13044;49.304;12.840;2023-02-26T08:26:29;6.10;;;3.65;;
25045;SDS011;13044;49.304;12.840;2023-02-26T08:28:55;4.43;;;3.67;;
25045;SDS011;13044;49.304;12.840;2023-02-26T08:31:22;5.70;;;3.83;;
25045;SDS011;13044;49.304;12.840;2023-02-26T08:33:49;6.65;;;3.70;;
25045;SDS011;13044;49.304;12.840;2023-02-26T08:36:16;6.60;;;3.50;;
25045;SDS011;13044;49.304;12.840;2023-02-26T08:38:43;5.55;;;3.47;;
25045;SDS011;13044;49.304;12.840;2023-02-26T08:41:10;5.18;;;3.55;;
25045;SDS011;13044;49.304;12.840;2023-02-26T08:43:37;4.82;;;4.00;;
25045;SDS011;13044;49.304;12.840;2023-02-26T08:46:04;6.80;;;4.30;;
25045;SDS011;13044;49.304;12.840;2023-02-26T08:48:31;5.85;;;4.13;;
25045;SDS011;13044;49.304;12.840;2023-02-26T08:50:58;7.10;;;4.50;;
25045;SDS011;13044;49.304;12.840;2023-02-26T08:53:25;6.90;;;4.75;;
25045;SDS011;13044;49.304;12.840;2023-02-26T08:55:52;6.68;;;3.92;;
25045;SDS011;13044;49.304;12.840;2023-02-26T08:58:19;9.25;;;3.95;;
25045;SDS011;13044;49.304;12.840;2023-02-26T09:00:47;7.07;;;4.00;;
25045;SDS011;13044;49.304;12.840;2023-02-26T09:03:14;7.60;;;3.83;;
25045;SDS011;13044;49.304;12.840;2023-02-26T09:05:41;5.85;;;3.60;;
25045;SDS011;13044;49.304;12.840;2023-02-26T09:08:08;6.07;;;3.58;;
25045;SDS011;13044;49.304;12.840;2023-02-26T09:10:36;8.15;;;4.82;;
25045;SDS011;13044;49.304;12.840;2023-02-26T09:13:06;11.35;;;6.20;;
25045;SDS011;13044;49.304;12.840;2023-02-26T09:15:33;4.05;;;3.28;;
25045;SDS011;13044;49.304;12.840;2023-02-26T09:18:00;4.53;;;3.08;;
25045;SDS011;13044;49.304;12.840;2023-02-26T09:20:31;4.47;;;3.83;;
25045;SDS011;13044;49.304;12.840;2023-02-26T09:22:58;6.18;;;3.58;;
25045;SDS011;13044;49.304;12.840;2023-02-26T09:25:25;4.20;;;3.38;;
25045;SDS011;13044;49.304;12.840;2023-02-26T09:27:52;4.13;;;3.38;;
25045;SDS011;13044;49.304;12.840;2023-02-26T09:30:18;4.63;;;3.40;;
25045;SDS011;13044;49.304;12.840;2023-02-26T09:32:45;3.20;;;2.80;;
25045;SDS011;13044;49.304;12.840;2023-02-26T09:35:12;3.78;;;3.40;;
25045;SDS011;13044;49.304;12.840;2023-02-26T09:37:39;5.57;;;3.88;;
25045;SDS011;13044;49.304;12.840;2023-02-26T09:40:06;5.15;;;3.65;;
25045;SDS011;13044;49.304;12.840;2023-02-26T09:43:37;9.52;;;5.22;;
25045;SDS011;13044;49.304;12.840;2023-02-26T09:45:53;9.45;;;4.80;;
25045;SDS011;13044;49.304;12.840;2023-02-26T09:48:25;4.63;;;3.30;;
25045;SDS011;13044;49.304;12.840;2023-02-26T09:50:56;5.65;;;3.70;;
25045;SDS011;13044;49.304;12.840;2023-02-26T09:53:28;6.53;;;4.10;;
25045;SDS011;13044;49.304;12.840;2023-02-26T09:56:04;8.90;;;3.53;;
25045;SDS011;13044;49.304;12.840;2023-02-26T09:59:08;5.35;;;3.60;;
25045;SDS011;13044;49.304;12.840;2023-02-26T10:04:16;6.63;;;4.15;;
25045;SDS011;13044;49.304;12.840;2023-02-26T10:07:13;8.57;;;5.50;;
25045;SDS011;13044;49.304;12.840;2023-02-26T10:09:57;6.53;;;3.70;;
25045;SDS011;13044;49.304;12.840;2023-02-26T10:12:35;6.03;;;4.15;;
25045;SDS011;13044;49.304;12.840;2023-02-26T10:18:10;6.05;;;4.13;;
25045;SDS011;13044;49.304;12.840;2023-02-26T10:21:09;11.65;;;5.90;;
25045;SDS011;13044;49.304;12.840;2023-02-26T10:23:44;11.02;;;4.57;;
25045;SDS011;13044;49.304;12.840;2023-02-26T10:26:19;8.27;;;4.13;;
25045;SDS011;13044;49.304;12.840;2023-02-26T10:28:55;16.15;;;7.05;;
25045;SDS011;13044;49.304;12.840;2023-02-26T10:34:35;6.80;;;4.45;;
25045;SDS011;13044;49.304;12.840;2023-02-26T10:37:15;7.93;;;3.85;;
25045;SDS011;13044;49.304;12.840;2023-02-26T10:39:49;5.35;;;3.65;;
25045;SDS011;13044;49.304;12.840;2023-02-26T10:42:51;7.60;;;4.05;;
25045;SDS011;13044;49.304;12.840;2023-02-26T10:48:25;7.72;;;5.05;;
25045;SDS011;13044;49.304;12.840;2023-02-26T10:51:59;10.23;;;4.63;;
25045;SDS011;13044;49.304;12.840;2023-02-26T10:54:03;5.88;;;3.25;;
25045;SDS011;13044;49.304;12.840;2023-02-26T10:56:40;5.25;;;3.08;;
25045;SDS011;13044;49.304;12.840;2023-02-26T10:59:07;4.40;;;2.75;;
25045;SDS011;13044;49.304;12.840;2023-02-26T11:01:34;4.53;;;2.83;;
25045;SDS011;13044;49.304;12.840;2023-02-26T11:04:03;5.60;;;3.60;;
25045;SDS011;13044;49.304;12.840;2023-02-26T11:06:43;8.98;;;6.15;;
25045;SDS011;13044;49.304;12.840;2023-02-26T11:11:53;12.43;;;7.80;;
25045;SDS011;13044;49.304;12.840;2023-02-26T11:14:27;9.95;;;4.95;;
25045;SDS011;13044;49.304;12.840;2023-02-26T11:16:57;11.73;;;5.75;;
25045;SDS011;13044;49.304;12.840;2023-02-26T11:19:28;11.50;;;5.40;;
25045;SDS011;13044;49.304;12.840;2023-02-26T11:22:01;4.35;;;3.05;;
25045;SDS011;13044;49.304;12.840;2023-02-26T11:24:33;6.75;;;3.88;;
25045;SDS011;13044;49.304;12.840;2023-02-26T11:27:17;12.05;;;5.70;;
25045;SDS011;13044;49.304;12.840;2023-02-26T11:29:58;6.88;;;3.88;;
25045;SDS011;13044;49.304;12.840;2023-02-26T11:32:40;9.95;;;5.38;;
25045;SDS011;13044;49.304;12.840;2023-02-26T11:35:14;13.75;;;6.57;;
25045;SDS011;13044;49.304;12.840;2023-02-26T11:37:46;26.20;;;8.23;;
25045;SDS011;13044;49.304;12.840;2023-02-26T11:40:22;18.45;;;7.68;;
25045;SDS011;13044;49.304;12.840;2023-02-26T11:42:58;15.38;;;6.00;;
25045;SDS011;13044;49.304;12.840;2023-02-26T11:45:32;10.65;;;4.20;;
25045;SDS011;13044;49.304;12.840;2023-02-26T11:48:03;4.60;;;2.90;;
25045;SDS011;13044;49.304;12.840;2023-02-26T11:50:37;13.25;;;6.13;;
25045;SDS011;13044;49.304;12.840;2023-02-26T11:53:19;11.98;;;4.80;;
25045;SDS011;13044;49.304;12.840;2023-02-26T11:55:59;3.97;;;2.92;;
25045;SDS011;13044;49.304;12.840;2023-02-26T11:58:40;14.65;;;5.75;;
25045;SDS011;13044;49.304;12.840;2023-02-26T12:01:12;4.82;;;3.28;;
25045;SDS011;13044;49.304;12.840;2023-02-26T12:03:43;6.03;;;3.80;;
25045;SDS011;13044;49.304;12.840;2023-02-26T12:06:20;7.90;;;3.88;;
25045;SDS011;13044;49.304;12.840;2023-02-26T12:08:50;7.13;;;3.60;;
25045;SDS011;13044;49.304;12.840;2023-02-26T12:20:19;8.27;;;4.05;;
25045;SDS011;13044;49.304;12.840;2023-02-26T12:32:18;4.93;;;3.00;;
25045;SDS011;13044;49.304;12.840;2023-02-26T12:40:49;5.50;;;3.30;;
25045;SDS011;13044;49.304;12.840;2023-02-26T12:49:35;4.47;;;2.97;;
25045;SDS011;13044;49.304;12.840;2023-02-26T12:52:31;3.65;;;2.17;;
25045;SDS011;13044;49.304;12.840;2023-02-26T12:58:27;5.60;;;3.55;;
25045;SDS011;13044;49.304;12.840;2023-02-26T13:01:26;3.67;;;2.65;;
25045;SDS011;13044;49.304;12.840;2023-02-26T13:16:18;15.00;;;7.00;;
25045;SDS011;13044;49.304;12.840;2023-02-26T13:21:53;4.30;;;3.00;;
25045;SDS011;13044;49.304;12.840;2023-02-26T13:27:36;4.70;;;3.13;;
25045;SDS011;13044;49.304;12.840;2023-02-26T13:30:27;5.72;;;3.40;;
25045;SDS011;13044;49.304;12.840;2023-02-26T13:32:59;3.25;;;2.75;;
25045;SDS011;13044;49.304;12.840;2023-02-26T13:35:32;4.85;;;2.80;;
25045;SDS011;13044;49.304;12.840;2023-02-26T13:38:09;4.47;;;3.08;;
25045;SDS011;13044;49.304;12.840;2023-02-26T13:41:11;4.80;;;3.72;;
25045;SDS011;13044;49.304;12.840;2023-02-26T13:43:55;5.57;;;3.60;;
25045;SDS011;13044;49.304;12.840;2023-02-26T13:55:53;2.72;;;2.13;;
25045;SDS011;13044;49.304;12.840;2023-02-26T14:01:03;2.50;;;2.15;;
25045;SDS011;13044;49.304;12.840;2023-02-26T14:03:35;3.35;;;2.13;;
25045;SDS011;13044;49.304;12.840;2023-02-26T14:08:54;2.83;;;2.10;;
25045;SDS011;13044;49.304;12.840;2023-02-26T14:11:36;3.80;;;2.25;;
25045;SDS011;13044;49.304;12.840;2023-02-26T14:14:15;4.97;;;1.90;;
25045;SDS011;13044;49.304;12.840;2023-02-26T14:20:24;4.20;;;2.10;;
25045;SDS011;13044;49.304;12.840;2023-02-26T14:23:33;3.05;;;2.22;;
25045;SDS011;13044;49.304;12.840;2023-02-26T14:26:02;6.57;;;2.50;;
25045;SDS011;13044;49.304;12.840;2023-02-26T14:28:43;4.20;;;2.50;;
25045;SDS011;13044;49.304;12.840;2023-02-26T14:34:32;5.53;;;2.60;;
25045;SDS011;13044;49.304;12.840;2023-02-26T14:37:03;4.38;;;3.20;;
25045;SDS011;13044;49.304;12.840;2023-02-26T14:39:52;7.25;;;4.10;;
25045;SDS011;13044;49.304;12.840;2023-02-26T14:42:53;16.23;;;7.93;;
25045;SDS011;13044;49.304;12.840;2023-02-26T14:45:26;7.07;;;4.65;;
25045;SDS011;13044;49.304;12.840;2023-02-26T14:48:02;6.07;;;3.90;;
25045;SDS011;13044;49.304;12.840;2023-02-26T14:50:37;4.82;;;3.50;;
25045;SDS011;13044;49.304;12.840;2023-02-26T14:56:50;4.95;;;4.03;;
25045;SDS011;13044;49.304;12.840;2023-02-26T15:06:21;5.93;;;2.85;;
25045;SDS011;13044;49.304;12.840;2023-02-26T15:09:10;3.88;;;2.80;;
25045;SDS011;13044;49.304;12.840;2023-02-26T15:26:05;7.15;;;2.50;;
25045;SDS011;13044;49.304;12.840;2023-02-26T15:28:38;5.18;;;2.80;;
25045;SDS011;13044;49.304;12.840;2023-02-26T15:31:08;9.80;;;4.55;;
25045;SDS011;13044;49.304;12.840;2023-02-26T15:33:39;3.72;;;1.88;;
25045;SDS011;13044;49.304;12.840;2023-02-26T15:36:07;4.93;;;2.85;;
25045;SDS011;13044;49.304;12.840;2023-02-26T15:38:39;7.30;;;3.63;;
25045;SDS011;13044;49.304;12.840;2023-02-26T15:41:15;6.88;;;3.50;;
25045;SDS011;13044;49.304;12.840;2023-02-26T15:43:46;7.82;;;3.35;;
25045;SDS011;13044;49.304;12.840;2023-02-26T15:46:27;7.53;;;4.00;;
25045;SDS011;13044;49.304;12.840;2023-02-26T15:51:59;8.15;;;3.90;;
25045;SDS011;13044;49.304;12.840;2023-02-26T15:54:36;6.32;;;3.60;;
25045;SDS011;13044;49.304;12.840;2023-02-26T15:57:10;5.88;;;3.83;;
25045;SDS011;13044;49.304;12.840;2023-02-26T15:59:41;8.77;;;4.50;;
25045;SDS011;13044;49.304;12.840;2023-02-26T16:02:12;20.67;;;9.23;;
25045;SDS011;13044;49.304;12.840;2023-02-26T16:04:41;17.23;;;7.25;;
25045;SDS011;13044;49.304;12.840;2023-02-26T16:07:10;7.22;;;3.90;;
25045;SDS011;13044;49.304;12.840;2023-02-26T16:09:39;7.80;;;3.47;;
25045;SDS011;13044;49.304;12.840;2023-02-26T16:12:15;9.98;;;3.83;;
25045;SDS011;13044;49.304;12.840;2023-02-26T16:14:47;10.07;;;3.67;;
25045;SDS011;13044;49.304;12.840;2023-02-26T16:17:26;7.63;;;3.58;;
25045;SDS011;13044;49.304;12.840;2023-02-26T16:19:56;6.43;;;3.90;;
25045;SDS011;13044;49.304;12.840;2023-02-26T16:22:31;11.35;;;3.40;;
25045;SDS011;13044;49.304;12.840;2023-02-26T16:27:56;5.30;;;3.28;;
25045;SDS011;13044;49.304;12.840;2023-02-26T16:30:47;10.55;;;7.13;;
25045;SDS011;13044;49.304;12.840;2023-02-26T16:33:20;12.60;;;4.57;;
25045;SDS011;13044;49.304;12.840;2023-02-26T16:36:35;14.60;;;8.52;;
25045;SDS011;13044;49.304;12.840;2023-02-26T16:38:44;8.43;;;3.88;;
25045;SDS011;13044;49.304;12.840;2023-02-26T16:41:15;10.23;;;4.93;;
25045;SDS011;13044;49.304;12.840;2023-02-26T16:49:14;8.57;;;4.00;;
25045;SDS011;13044;49.304;12.840;2023-02-26T16:51:49;6.57;;;4.35;;
25045;SDS011;13044;49.304;12.840;2023-02-26T16:54:18;7.18;;;3.25;;
25045;SDS011;13044;49.304;12.840;2023-02-26T16:56:52;10.18;;;4.40;;
25045;SDS011;13044;49.304;12.840;2023-02-26T16:59:27;8.18;;;3.85;;
25045;SDS011;13044;49.304;12.840;2023-02-26T17:02:04;6.88;;;3.30;;
25045;SDS011;13044;49.304;12.840;2023-02-26T17:04:39;6.87;;;3.63;;
25045;SDS011;13044;49.304;12.840;2023-02-26T17:07:19;5.88;;;2.72;;
25045;SDS011;13044;49.304;12.840;2023-02-26T17:09:56;12.32;;;4.20;;
25045;SDS011;13044;49.304;12.840;2023-02-26T17:12:46;15.95;;;7.05;;
25045;SDS011;13044;49.304;12.840;2023-02-26T17:15:17;24.40;;;12.02;;
25045;SDS011;13044;49.304;12.840;2023-02-26T17:17:56;36.42;;;16.30;;
25045;SDS011;13044;49.304;12.840;2023-02-26T17:20:24;13.20;;;7.68;;
25045;SDS011;13044;49.304;12.840;2023-02-26T17:22:52;17.42;;;9.18;;
25045;SDS011;13044;49.304;12.840;2023-02-26T17:25:21;18.13;;;8.23;;
25045;SDS011;13044;49.304;12.840;2023-02-26T17:27:50;12.15;;;5.90;;
25045;SDS011;13044;49.304;12.840;2023-02-26T17:30:18;12.90;;;6.03;;
25045;SDS011;13044;49.304;12.840;2023-02-26T17:32:49;18.30;;;9.15;;
25045;SDS011;13044;49.304;12.840;2023-02-26T17:35:16;10.25;;;4.53;;
25045;SDS011;13044;49.304;12.840;2023-02-26T17:37:44;8.27;;;4.20;;
25045;SDS011;13044;49.304;12.840;2023-02-26T17:42:46;8.45;;;4.65;;
25045;SDS011;13044;49.304;12.840;2023-02-26T17:45:13;12.25;;;6.15;;
25045;SDS011;13044;49.304;12.840;2023-02-26T17:47:41;11.05;;;4.50;;
25045;SDS011;13044;49.304;12.840;2023-02-26T17:50:18;17.02;;;9.02;;
25045;SDS011;13044;49.304;12.840;2023-02-26T17:52:52;10.88;;;6.00;;
25045;SDS011;13044;49.304;12.840;2023-02-26T17:55:18;17.33;;;9.68;;
25045;SDS011;13044;49.304;12.840;2023-02-26T17:57:45;12.80;;;6.15;;
25045;SDS011;13044;49.304;12.840;2023-02-26T18:00:13;9.00;;;5.80;;
25045;SDS011;13044;49.304;12.840;2023-02-26T18:02:41;22.35;;;11.55;;
25045;SDS011;13044;49.304;12.840;2023-02-26T18:05:08;12.43;;;5.68;;